createdAt,value
2017-11-27T00:00:39.940Z,91.60
2017-11-27T00:03:08.012Z,91.60
2017-11-27T00:05:36.107Z,91.20
2017-11-27T00:08:04.172Z,91.20
2017-11-27T00:10:32.339Z,91.20
2017-11-27T00:13:00.398Z,91.20
2017-11-27T00:15:28.483Z,91.30
2017-11-27T00:17:56.541Z,91.40
2017-11-27T00:20:24.618Z,91.50
2017-11-27T00:22:52.681Z,91.20
2017-11-27T00:25:20.757Z,91.70
2017-11-27T00:27:48.837Z,91.60
2017-11-27T00:30:16.919Z,91.20
2017-11-27T00:32:45.056Z,91.60
2017-11-27T00:35:13.120Z,91.40
2017-11-27T00:37:41.196Z,91.80
2017-11-27T00:40:09.286Z,91.60
2017-11-27T00:42:37.336Z,91.60
2017-11-27T00:45:05.408Z,91.20
2017-11-27T00:47:33.476Z,91.20
2017-11-27T00:50:01.549Z,91.20
2017-11-27T00:52:29.620Z,91.10
2017-11-27T00:54:57.691Z,90.90
2017-11-27T00:57:25.866Z,90.80
2017-11-27T00:59:53.924Z,91.10
2017-11-27T01:02:22.009Z,91.20
2017-11-27T01:04:50.265Z,91.00
2017-11-27T01:07:18.340Z,90.90
2017-11-27T01:09:46.414Z,90.70
2017-11-27T01:12:14.500Z,90.70
2017-11-27T01:14:42.568Z,90.90
2017-11-27T01:17:10.637Z,90.80
2017-11-27T01:19:39.304Z,90.70
2017-11-27T01:22:07.379Z,90.70
2017-11-27T01:24:35.452Z,90.70
2017-11-27T01:27:03.542Z,90.70
2017-11-27T01:29:31.613Z,90.60
2017-11-27T01:31:59.679Z,90.70
2017-11-27T01:34:27.753Z,90.60
2017-11-27T01:36:55.820Z,90.60
2017-11-27T01:39:23.887Z,90.50
2017-11-27T01:41:51.961Z,90.70
2017-11-27T01:44:20.035Z,90.60
2017-11-27T01:46:48.110Z,90.60
2017-11-27T01:49:16.178Z,90.60
2017-11-27T01:51:44.246Z,90.40
2017-11-27T01:54:12.345Z,90.30
2017-11-27T01:56:40.416Z,90.10
2017-11-27T01:59:08.489Z,90.30
2017-11-27T02:01:36.560Z,90.10
2017-11-27T02:04:04.720Z,90.30
2017-11-27T02:06:32.798Z,90.20
2017-11-27T02:09:00.860Z,90.10
2017-11-27T02:11:28.936Z,90.00
2017-11-27T02:13:57.000Z,90.00
2017-11-27T02:16:25.176Z,90.00
2017-11-27T02:18:53.248Z,89.60
2017-11-27T02:21:21.331Z,89.60
2017-11-27T02:23:49.389Z,89.70
2017-11-27T02:26:17.474Z,90.00
2017-11-27T02:28:46.323Z,89.30
2017-11-27T02:31:14.424Z,89.40
2017-11-27T02:33:42.500Z,89.00
2017-11-27T02:36:11.342Z,88.40
2017-11-27T02:38:39.438Z,89.10
2017-11-27T02:41:07.511Z,89.70
2017-11-27T02:43:35.577Z,89.30
2017-11-27T02:46:03.679Z,88.90
2017-11-27T02:48:31.722Z,88.70
2017-11-27T02:50:59.897Z,88.90
2017-11-27T02:53:27.967Z,88.70
2017-11-27T02:55:56.049Z,87.30
2017-11-27T02:58:24.117Z,87.40
2017-11-27T03:00:52.179Z,87.30
2017-11-27T03:03:20.253Z,87.80
2017-11-27T03:05:48.425Z,87.80
2017-11-27T03:08:16.493Z,87.60
2017-11-27T03:10:44.564Z,87.90
2017-11-27T03:13:12.651Z,88.00
2017-11-27T03:15:41.488Z,88.10
2017-11-27T03:18:09.570Z,88.10
2017-11-27T03:20:37.624Z,88.00
2017-11-27T03:23:05.689Z,87.50
2017-11-27T03:25:33.765Z,87.50
2017-11-27T03:28:01.871Z,88.30
2017-11-27T03:30:29.987Z,87.90
2017-11-27T03:32:58.052Z,87.90
2017-11-27T03:35:26.895Z,86.80
2017-11-27T03:37:55.008Z,86.90
2017-11-27T03:40:23.835Z,87.30
2017-11-27T03:42:51.940Z,87.20
2017-11-27T03:45:20.023Z,86.90
2017-11-27T03:47:48.188Z,86.90
2017-11-27T03:50:16.260Z,86.50
2017-11-27T03:52:44.535Z,86.00
2017-11-27T03:55:12.859Z,85.10
2017-11-27T03:57:40.937Z,85.90
2017-11-27T04:00:09.003Z,85.40
2017-11-27T04:02:37.123Z,85.40
2017-11-27T04:05:05.189Z,86.50
2017-11-27T04:07:33.259Z,86.50
2017-11-27T04:10:01.319Z,86.40
2017-11-27T04:12:29.467Z,86.50
2017-11-27T04:14:57.626Z,86.40
2017-11-27T04:17:25.697Z,87.50
2017-11-27T04:19:53.820Z,87.50
2017-11-27T04:22:21.898Z,87.60
2017-11-27T04:24:49.974Z,87.40
2017-11-27T04:27:18.804Z,86.70
2017-11-27T04:29:46.878Z,87.50
2017-11-27T04:32:14.976Z,87.10
2017-11-27T04:34:43.073Z,87.40
2017-11-27T04:37:11.154Z,87.70
2017-11-27T04:39:40.010Z,87.80
2017-11-27T04:42:08.083Z,87.70
2017-11-27T04:44:36.167Z,87.20
2017-11-27T04:47:04.232Z,87.10
2017-11-27T04:49:32.400Z,86.70
2017-11-27T04:52:00.472Z,86.60
2017-11-27T04:54:28.540Z,86.60
2017-11-27T04:56:56.813Z,86.70
2017-11-27T04:59:25.570Z,87.30
2017-11-27T05:01:53.637Z,87.30
2017-11-27T05:04:21.704Z,87.90
2017-11-27T05:06:49.773Z,88.00
2017-11-27T05:09:17.835Z,88.30
2017-11-27T05:11:45.909Z,88.40
2017-11-27T05:14:14.033Z,88.40
2017-11-27T05:16:42.101Z,88.70
2017-11-27T05:19:10.581Z,88.70
2017-11-27T05:21:38.673Z,88.80
2017-11-27T05:24:07.514Z,89.10
2017-11-27T05:26:35.579Z,89.20
2017-11-27T05:29:03.661Z,88.80
2017-11-27T05:31:31.723Z,89.10
2017-11-27T05:33:59.785Z,88.90
2017-11-27T05:36:27.853Z,88.90
2017-11-27T05:38:55.921Z,88.90
2017-11-27T05:41:24.001Z,88.60
2017-11-27T05:43:52.067Z,88.60
2017-11-27T05:46:20.179Z,87.90
2017-11-27T05:48:48.249Z,87.90
2017-11-27T05:51:16.321Z,88.10
2017-11-27T05:53:44.396Z,87.60
2017-11-27T05:56:12.467Z,87.70
2017-11-27T05:58:40.536Z,87.40
2017-11-27T06:01:08.605Z,87.50
2017-11-27T06:03:36.676Z,87.70
2017-11-27T06:06:04.749Z,88.30
2017-11-27T06:08:32.834Z,88.80
2017-11-27T06:11:01.666Z,89.40
2017-11-27T06:13:29.740Z,89.50
2017-11-27T06:15:57.806Z,89.90
2017-11-27T06:18:25.924Z,90.00
2017-11-27T06:20:54.775Z,90.30
2017-11-27T06:23:22.854Z,90.30
2017-11-27T06:25:50.934Z,90.30
2017-11-27T06:28:19.036Z,90.30
2017-11-27T06:30:47.868Z,90.60
2017-11-27T06:33:15.942Z,90.60
2017-11-27T06:35:44.010Z,90.50
2017-11-27T06:38:12.078Z,90.50
2017-11-27T06:40:40.148Z,90.70
2017-11-27T06:43:08.229Z,90.80
2017-11-27T06:45:36.306Z,90.80
2017-11-27T06:48:04.372Z,90.80
2017-11-27T06:50:32.729Z,90.80
2017-11-27T06:53:00.799Z,90.80
2017-11-27T06:55:29.854Z,90.80
2017-11-27T06:57:58.002Z,90.80
2017-11-27T07:00:27.892Z,91.00
2017-11-27T07:02:55.965Z,91.00
2017-11-27T07:05:24.063Z,91.10
2017-11-27T07:07:52.717Z,91.10
2017-11-27T07:10:21.411Z,90.90
2017-11-27T07:12:49.480Z,91.10
2017-11-27T07:15:17.576Z,90.90
2017-11-27T07:17:45.640Z,90.90
2017-11-27T07:20:13.757Z,90.80
2017-11-27T07:22:42.218Z,90.90
2017-11-27T07:25:11.760Z,90.90
2017-11-27T07:27:41.000Z,90.90
2017-11-27T07:30:09.060Z,90.80
2017-11-27T07:32:37.128Z,90.80
2017-11-27T07:35:05.209Z,90.70
2017-11-27T07:37:38.901Z,90.90
2017-11-27T07:40:06.962Z,90.80
2017-11-27T07:42:35.033Z,90.80
2017-11-27T07:45:03.101Z,90.80
2017-11-27T07:47:31.173Z,90.80
2017-11-27T07:49:59.246Z,90.60
2017-11-27T07:52:27.316Z,90.70
2017-11-27T07:54:55.384Z,90.80
2017-11-27T07:57:23.463Z,90.80
2017-11-27T07:59:51.601Z,90.80
2017-11-27T08:02:19.668Z,90.70
2017-11-27T08:04:47.745Z,90.50
2017-11-27T08:07:15.813Z,90.30
2017-11-27T08:09:43.887Z,90.30
2017-11-27T08:12:11.955Z,90.40
2017-11-27T08:14:40.039Z,90.10
2017-11-27T08:17:08.088Z,89.80
2017-11-27T08:19:36.168Z,89.30
2017-11-27T08:22:04.240Z,89.00
2017-11-27T08:24:32.309Z,88.30
2017-11-27T08:27:00.412Z,87.70
2017-11-27T08:29:28.502Z,88.00
2017-11-27T08:31:56.657Z,87.10
2017-11-27T08:34:25.226Z,87.70
2017-11-27T08:36:53.293Z,87.20
2017-11-27T08:39:21.365Z,86.70
2017-11-27T08:41:49.478Z,85.90
2017-11-27T08:44:17.524Z,85.30
2017-11-27T08:46:45.592Z,83.90
2017-11-27T08:49:13.652Z,84.00
2017-11-27T08:51:41.724Z,83.90
2017-11-27T08:54:09.798Z,84.00
2017-11-27T08:56:37.865Z,83.20
2017-11-27T08:59:05.933Z,82.70
2017-11-27T09:01:34.017Z,82.60
2017-11-27T09:04:02.075Z,82.20
2017-11-27T09:06:30.162Z,82.50
2017-11-27T09:08:58.223Z,81.50
2017-11-27T09:11:26.313Z,82.40
2017-11-27T09:13:54.381Z,81.50
2017-11-27T09:16:22.449Z,81.00
2017-11-27T09:18:50.520Z,81.50
2017-11-27T09:21:18.696Z,81.80
2017-11-27T09:23:46.781Z,81.30
2017-11-27T09:26:15.649Z,79.70
2017-11-27T09:28:43.730Z,79.80
2017-11-27T09:31:11.793Z,80.50
2017-11-27T09:33:39.875Z,81.60
2017-11-27T09:36:08.032Z,81.70
2017-11-27T09:38:36.109Z,80.00
2017-11-27T09:41:04.192Z,80.10
2017-11-27T09:43:33.055Z,80.20
2017-11-27T09:46:01.109Z,80.20
2017-11-27T09:48:29.184Z,80.60
2017-11-27T09:50:57.252Z,79.50
2017-11-27T09:53:25.339Z,80.10
2017-11-27T09:55:53.395Z,78.90
2017-11-27T09:58:21.467Z,79.60
2017-11-27T10:00:49.536Z,79.90
2017-11-27T10:03:17.637Z,80.20
2017-11-27T10:05:45.692Z,79.10
2017-11-27T10:08:13.764Z,79.00
2017-11-27T10:10:41.861Z,80.00
2017-11-27T10:13:10.724Z,78.90
2017-11-27T10:15:38.809Z,79.00
2017-11-27T10:18:06.872Z,78.00
2017-11-27T10:20:34.953Z,77.70
2017-11-27T10:23:03.108Z,77.90
2017-11-27T10:25:32.094Z,76.30
2017-11-27T10:28:00.163Z,76.50
2017-11-27T10:30:28.268Z,75.40
2017-11-27T10:32:57.108Z,76.50
2017-11-27T10:35:25.172Z,76.50
2017-11-27T10:37:53.252Z,75.40
2017-11-27T10:40:21.333Z,75.40
2017-11-27T10:42:49.419Z,76.30
2017-11-27T10:45:17.493Z,74.90
2017-11-27T10:47:45.666Z,72.70
2017-11-27T10:50:13.741Z,72.00
2017-11-27T10:52:41.909Z,71.70
2017-11-27T10:55:09.984Z,71.70
2017-11-27T10:57:38.867Z,67.90
2017-11-27T11:00:06.978Z,67.10
2017-11-27T11:02:35.822Z,63.40
2017-11-27T11:05:03.889Z,63.20
2017-11-27T11:07:32.073Z,61.20
2017-11-27T11:10:00.144Z,59.50
2017-11-27T11:12:28.248Z,55.20
2017-11-27T11:14:56.321Z,55.30
2017-11-27T11:17:24.393Z,52.10
2017-11-27T11:19:52.464Z,55.80
2017-11-27T11:22:20.528Z,56.50
2017-11-27T11:24:48.657Z,56.30
2017-11-27T11:27:16.732Z,58.20
2017-11-27T11:29:45.699Z,60.10
2017-11-27T11:32:13.772Z,61.90
2017-11-27T11:34:41.852Z,62.20
2017-11-27T11:37:09.933Z,63.00
2017-11-27T11:39:38.020Z,64.30
2017-11-27T11:42:06.872Z,64.80
2017-11-27T11:44:35.730Z,64.90
2017-11-27T11:47:03.801Z,64.50
2017-11-27T11:49:31.899Z,63.50
2017-11-27T11:51:59.976Z,62.60
2017-11-27T11:54:28.057Z,61.90
2017-11-27T11:56:56.142Z,59.60
2017-11-27T11:59:24.241Z,58.80
2017-11-27T12:01:52.289Z,59.00
2017-11-27T12:04:20.360Z,58.90
2017-11-27T12:06:48.688Z,58.70
2017-11-27T12:09:16.756Z,60.40
2017-11-27T12:11:44.832Z,59.80
2017-11-27T12:14:12.902Z,60.70
2017-11-27T12:16:40.972Z,61.40
2017-11-27T12:19:09.041Z,61.10
2017-11-27T12:21:37.108Z,59.70
2017-11-27T12:24:05.184Z,60.70
2017-11-27T12:26:33.317Z,60.90
2017-11-27T12:29:02.166Z,60.00
2017-11-27T12:31:30.247Z,60.00
2017-11-27T12:33:58.333Z,61.40
2017-11-27T12:36:27.174Z,61.20
2017-11-27T12:38:55.269Z,61.20
2017-11-27T12:41:23.348Z,61.60
2017-11-27T12:43:51.434Z,62.10
2017-11-27T12:46:19.505Z,61.90
2017-11-27T12:48:48.351Z,62.20
2017-11-27T12:51:16.421Z,62.00
2017-11-27T12:53:44.496Z,62.90
2017-11-27T12:56:12.589Z,63.00
2017-11-27T12:58:40.681Z,62.90
2017-11-27T13:01:09.591Z,64.00
2017-11-27T13:03:37.693Z,64.20
2017-11-27T13:06:05.771Z,63.90
2017-11-27T13:08:33.865Z,63.90
2017-11-27T13:11:01.944Z,63.90
2017-11-27T13:13:30.029Z,64.00
2017-11-27T13:15:58.861Z,63.90
2017-11-27T13:18:27.031Z,63.80
2017-11-27T13:20:55.137Z,63.70
2017-11-27T13:23:23.213Z,64.60
2017-11-27T13:25:51.301Z,65.00
2017-11-27T13:28:20.131Z,63.90
2017-11-27T13:30:48.212Z,63.90
2017-11-27T13:33:16.276Z,63.80
2017-11-27T13:35:44.352Z,63.80
2017-11-27T13:38:12.458Z,63.60
2017-11-27T13:40:40.537Z,64.10
2017-11-27T13:43:09.373Z,63.60
2017-11-27T13:45:37.514Z,63.60
2017-11-27T13:48:06.345Z,63.70
2017-11-27T13:50:34.500Z,63.70
2017-11-27T13:53:02.573Z,63.60
2017-11-27T13:55:30.640Z,64.40
2017-11-27T13:57:58.721Z,69.30
2017-11-27T14:00:26.785Z,69.10
2017-11-27T14:02:54.859Z,70.40
2017-11-27T14:05:23.237Z,81.80
2017-11-27T14:07:51.416Z,72.30
2017-11-27T14:10:19.482Z,73.50
2017-11-27T14:12:47.558Z,75.50
2017-11-27T14:15:15.676Z,77.40
2017-11-27T14:17:43.740Z,80.30
2017-11-27T14:20:11.850Z,82.10
2017-11-27T14:22:39.920Z,83.80
2017-11-27T14:25:07.996Z,86.10
2017-11-27T14:27:36.086Z,88.10
2017-11-27T14:30:04.150Z,89.00
2017-11-27T14:32:32.472Z,90.10
2017-11-27T14:35:00.544Z,90.50
2017-11-27T14:37:28.718Z,90.60
2017-11-27T14:39:56.808Z,91.00
2017-11-27T14:42:25.637Z,92.00
2017-11-27T14:44:53.717Z,92.10
2017-11-27T14:47:21.785Z,92.50
2017-11-27T14:49:49.862Z,92.10
2017-11-27T14:52:17.920Z,91.90
2017-11-27T14:54:45.994Z,92.60
2017-11-27T14:57:14.057Z,93.10
2017-11-27T14:59:42.151Z,93.10
2017-11-27T15:02:10.226Z,93.30
2017-11-27T15:04:38.327Z,93.30
2017-11-27T15:07:07.166Z,93.30
2017-11-27T15:09:35.250Z,93.40
2017-11-27T15:12:03.434Z,93.20
2017-11-27T15:14:31.597Z,93.60
2017-11-27T15:16:59.669Z,94.00
2017-11-27T15:19:27.733Z,92.90
2017-11-27T15:21:55.823Z,93.60
2017-11-27T15:24:23.941Z,94.10
2017-11-27T15:26:52.020Z,93.60
2017-11-27T15:29:20.126Z,93.30
2017-11-27T15:31:48.201Z,93.70
2017-11-27T15:34:16.271Z,93.90
2017-11-27T15:36:44.365Z,93.80
2017-11-27T15:39:13.207Z,93.20
2017-11-27T15:41:41.329Z,93.20
2017-11-27T15:44:10.202Z,93.80
2017-11-27T15:46:38.342Z,93.70
2017-11-27T15:49:06.441Z,93.50
2017-11-27T15:51:34.516Z,93.30
2017-11-27T15:54:02.589Z,93.20
2017-11-27T15:56:30.655Z,93.50
2017-11-27T15:58:58.724Z,93.30
2017-11-27T16:01:26.798Z,93.50
2017-11-27T16:03:54.868Z,93.00
2017-11-27T16:06:22.929Z,93.70
2017-11-27T16:08:51.000Z,93.40
2017-11-27T16:11:19.064Z,93.50
2017-11-27T16:13:47.151Z,93.70
2017-11-27T16:16:15.218Z,93.50
2017-11-27T16:18:43.285Z,93.50
2017-11-27T16:21:11.340Z,93.50
2017-11-27T16:23:39.417Z,93.40
2017-11-27T16:26:07.484Z,94.10
2017-11-27T16:28:35.551Z,93.70
2017-11-27T16:31:03.635Z,94.10
2017-11-27T16:33:31.705Z,93.90
2017-11-27T16:36:00.526Z,93.60
2017-11-27T16:38:29.376Z,94.10
2017-11-27T16:40:57.441Z,94.10
2017-11-27T16:43:25.508Z,94.10
2017-11-27T16:45:53.584Z,94.10
2017-11-27T16:48:21.680Z,94.20
2017-11-27T16:50:50.517Z,94.10
2017-11-27T16:53:18.587Z,94.20
2017-11-27T16:55:46.697Z,94.10
2017-11-27T16:58:15.541Z,94.10
2017-11-27T17:00:43.667Z,94.10
2017-11-27T17:03:11.767Z,94.00
2017-11-27T17:05:39.899Z,94.10
2017-11-27T17:08:07.965Z,94.10
2017-11-27T17:10:36.128Z,94.40
2017-11-27T17:13:04.978Z,94.60
2017-11-27T17:15:33.076Z,94.10
2017-11-27T17:18:01.210Z,94.30
2017-11-27T17:20:29.298Z,94.50
2017-11-27T17:22:57.365Z,94.80
2017-11-27T17:25:25.441Z,94.50
2017-11-27T17:27:53.501Z,94.50
2017-11-27T17:30:21.576Z,94.20
2017-11-27T17:32:49.642Z,94.60
2017-11-27T17:35:17.712Z,94.60
2017-11-27T17:37:45.784Z,94.70
2017-11-27T17:40:13.852Z,94.70
2017-11-27T17:42:41.929Z,94.70
2017-11-27T17:45:10.000Z,94.70
2017-11-27T17:47:38.065Z,94.30
2017-11-27T17:50:07.114Z,94.60
2017-11-27T17:52:35.885Z,94.60
2017-11-27T17:55:03.958Z,94.50
2017-11-27T17:57:32.027Z,94.80
2017-11-27T18:00:00.097Z,94.50
2017-11-27T18:02:28.193Z,94.80
2017-11-27T18:04:56.266Z,94.20
2017-11-27T18:07:25.114Z,94.60
2017-11-27T18:09:53.213Z,94.60
2017-11-27T18:12:21.288Z,94.30
2017-11-27T18:14:49.344Z,94.80
2017-11-27T18:17:17.418Z,94.70
2017-11-27T18:19:45.498Z,94.70
2017-11-27T18:22:13.679Z,94.80
2017-11-27T18:24:41.763Z,94.70
2017-11-27T18:27:10.612Z,94.90
2017-11-27T18:29:38.698Z,94.90
2017-11-27T18:32:06.769Z,94.90
2017-11-27T18:34:34.831Z,95.00
2017-11-27T18:37:02.933Z,95.20
2017-11-27T18:39:31.781Z,95.30
2017-11-27T18:41:59.847Z,95.30
2017-11-27T18:44:27.926Z,95.20
2017-11-27T18:46:55.995Z,95.50
2017-11-27T18:49:24.669Z,95.50
2017-11-27T18:52:02.663Z,95.50
2017-11-27T18:54:30.735Z,95.60
2017-11-27T18:56:58.821Z,95.40
2017-11-27T18:59:26.936Z,95.60
2017-11-27T19:02:05.652Z,95.80
2017-11-27T19:04:34.507Z,95.50
2017-11-27T19:07:02.593Z,95.50
2017-11-27T19:09:31.298Z,95.80
2017-11-27T19:12:00.145Z,95.80
2017-11-27T19:14:28.242Z,95.70
2017-11-27T19:16:56.448Z,96.10
2017-11-27T19:19:24.578Z,96.00
2017-11-27T19:21:52.640Z,96.10
2017-11-27T19:24:20.800Z,96.20
2017-11-27T19:26:48.884Z,96.00
2017-11-27T19:29:16.957Z,96.10
2017-11-27T19:31:45.146Z,95.70
2017-11-27T19:34:13.218Z,96.30
2017-11-27T19:36:41.300Z,96.30
2017-11-27T19:39:10.141Z,96.30
2017-11-27T19:41:38.207Z,96.30
2017-11-27T19:44:06.283Z,96.40
2017-11-27T19:46:34.446Z,96.50
2017-11-27T19:49:02.521Z,96.30
2017-11-27T19:51:30.606Z,96.40
2017-11-27T19:53:58.679Z,96.30
2017-11-27T19:56:26.778Z,96.20
2017-11-27T19:58:54.853Z,96.30
2017-11-27T20:01:22.934Z,96.60
2017-11-27T20:03:51.769Z,96.80
2017-11-27T20:06:19.842Z,96.60
2017-11-27T20:08:47.934Z,96.50
2017-11-27T20:11:16.005Z,96.30
2017-11-27T20:13:44.073Z,96.50
2017-11-27T20:16:12.158Z,96.50
2017-11-27T20:18:40.232Z,96.70
2017-11-27T20:21:09.064Z,96.50
2017-11-27T20:23:37.621Z,96.20
2017-11-27T20:26:15.589Z,96.60
2017-11-27T20:28:43.661Z,96.30
2017-11-27T20:31:11.741Z,96.10
2017-11-27T20:33:39.808Z,96.40
2017-11-27T20:36:07.979Z,96.20
2017-11-27T20:38:36.050Z,96.40
2017-11-27T20:41:04.126Z,96.40
2017-11-27T20:43:32.197Z,96.50
2017-11-27T20:46:01.061Z,96.40
2017-11-27T20:48:29.137Z,96.30
2017-11-27T20:50:57.209Z,96.10
2017-11-27T20:53:25.284Z,96.10
2017-11-27T20:55:53.396Z,96.00
2017-11-27T20:58:21.471Z,96.40
2017-11-27T21:00:49.540Z,96.40
2017-11-27T21:03:17.613Z,96.30
2017-11-27T21:05:45.748Z,96.30
2017-11-27T21:08:13.841Z,96.10
2017-11-27T21:10:41.921Z,96.00
2017-11-27T21:13:09.994Z,96.00
2017-11-27T21:15:38.085Z,95.80
2017-11-27T21:18:06.142Z,96.20
2017-11-27T21:20:34.205Z,96.10
2017-11-27T21:23:02.276Z,95.80
2017-11-27T21:25:30.333Z,95.80
2017-11-27T21:27:59.204Z,95.80
2017-11-27T21:30:27.259Z,95.80
2017-11-27T21:32:55.329Z,95.80
2017-11-27T21:35:23.401Z,95.80
2017-11-27T21:37:51.570Z,95.70
2017-11-27T21:40:19.641Z,96.00
2017-11-27T21:42:47.713Z,95.70
2017-11-27T21:45:15.784Z,95.80
2017-11-27T21:47:43.960Z,95.80
2017-11-27T21:50:12.029Z,95.20
2017-11-27T21:52:40.098Z,95.40
2017-11-27T21:55:08.171Z,95.50
2017-11-27T21:57:36.248Z,95.50
2017-11-27T22:00:04.413Z,95.40
2017-11-27T22:02:32.489Z,95.40
2017-11-27T22:05:00.660Z,95.40
2017-11-27T22:07:28.732Z,95.40
2017-11-27T22:09:56.901Z,95.10
2017-11-27T22:12:24.978Z,95.20
2017-11-27T22:14:53.148Z,95.20
2017-11-27T22:17:21.223Z,95.10
2017-11-27T22:19:49.907Z,94.50
2017-11-27T22:22:17.974Z,95.00
2017-11-27T22:24:46.046Z,95.00
2017-11-27T22:27:14.221Z,94.50
2017-11-27T22:29:42.297Z,94.70
2017-11-27T22:32:10.361Z,94.60
2017-11-27T22:34:38.607Z,94.70
2017-11-27T22:37:06.679Z,94.80
2017-11-27T22:39:34.747Z,94.80
2017-11-27T22:42:02.812Z,94.80
2017-11-27T22:44:30.880Z,94.70
2017-11-27T22:46:58.949Z,94.50
2017-11-27T22:49:27.027Z,94.90
2017-11-27T22:51:55.091Z,95.20
2017-11-27T22:54:23.156Z,95.20
2017-11-27T22:56:51.224Z,95.00
2017-11-27T22:59:19.355Z,95.50
2017-11-27T23:01:47.397Z,95.40
2017-11-27T23:04:15.457Z,95.30
2017-11-27T23:06:43.537Z,95.40
2017-11-27T23:09:11.607Z,95.40
2017-11-27T23:11:39.681Z,95.30
2017-11-27T23:14:07.745Z,95.40
2017-11-27T23:16:35.800Z,95.50
2017-11-27T23:19:03.878Z,95.60
2017-11-27T23:21:31.942Z,95.50
2017-11-27T23:24:00.068Z,95.40
2017-11-27T23:26:28.909Z,95.60
2017-11-27T23:28:56.976Z,95.70
2017-11-27T23:31:25.018Z,95.60
2017-11-27T23:33:53.093Z,95.70
2017-11-27T23:36:21.165Z,95.70
2017-11-27T23:38:49.215Z,95.80
2017-11-27T23:41:17.287Z,95.60
2017-11-27T23:43:45.356Z,95.60
2017-11-27T23:46:13.424Z,95.60
2017-11-27T23:48:42.240Z,95.40
2017-11-27T23:51:10.310Z,95.40
2017-11-27T23:53:38.379Z,95.60
2017-11-27T23:56:06.461Z,95.60
2017-11-27T23:58:34.520Z,95.50
